sensor_id;sensor_type;location;lat;lon;timestamp;P1;durP1;ratioP1;P2;durP2;ratioP2
54452;SDS011;40363;52.270;10.546;2023-11-22T00:00:18;5.68;;;3.00;;
54452;SDS011;40363;52.270;10.546;2023-11-22T00:02:46;5.78;;;3.03;;
54452;SDS011;40363;52.270;10.546;2023-11-22T00:05:13;4.47;;;2.70;;
54452;SDS011;40363;52.270;10.546;2023-11-22T00:07:40;4.50;;;2.20;;
54452;SDS011;40363;52.270;10.546;2023-11-22T00:10:08;4.35;;;2.42;;
54452;SDS011;40363;52.270;10.546;2023-11-22T00:12:35;4.97;;;2.30;;
54452;SDS011;40363;52.270;10.546;2023-11-22T00:15:03;5.18;;;2.60;;
54452;SDS011;40363;52.270;10.546;2023-11-22T00:17:32;5.00;;;2.33;;
54452;SDS011;40363;52.270;10.546;2023-11-22T00:19:58;4.75;;;2.97;;
54452;SDS011;40363;52.270;10.546;2023-11-22T00:22:30;5.30;;;2.60;;
54452;SDS011;40363;52.270;10.546;2023-11-22T00:24:57;4.57;;;2.45;;
54452;SDS011;40363;52.270;10.546;2023-11-22T00:27:25;4.65;;;2.50;;
54452;SDS011;40363;52.270;10.546;2023-11-22T00:29:52;5.57;;;2.75;;
54452;SDS011;40363;52.270;10.546;2023-11-22T00:32:19;5.65;;;2.65;;
54452;SDS011;40363;52.270;10.546;2023-11-22T00:34:45;6.70;;;2.90;;
54452;SDS011;40363;52.270;10.546;2023-11-22T00:37:12;4.43;;;2.00;;
54452;SDS011;40363;52.270;10.546;2023-11-22T00:39:40;5.28;;;2.33;;
54452;SDS011;40363;52.270;10.546;2023-11-22T00:42:06;3.38;;;2.33;;
54452;SDS011;40363;52.270;10.546;2023-11-22T00:44:34;4.35;;;2.65;;
54452;SDS011;40363;52.270;10.546;2023-11-22T00:47:01;5.55;;;2.45;;
54452;SDS011;40363;52.270;10.546;2023-11-22T00:49:28;3.80;;;2.30;;
54452;SDS011;40363;52.270;10.546;2023-11-22T00:51:54;5.18;;;2.40;;
54452;SDS011;40363;52.270;10.546;2023-11-22T00:54:21;6.97;;;2.97;;
54452;SDS011;40363;52.270;10.546;2023-11-22T00:56:48;4.68;;;3.03;;
54452;SDS011;40363;52.270;10.546;2023-11-22T00:59:15;3.90;;;2.40;;
54452;SDS011;40363;52.270;10.546;2023-11-22T01:01:43;6.13;;;2.55;;
54452;SDS011;40363;52.270;10.546;2023-11-22T01:04:09;5.35;;;2.45;;
54452;SDS011;40363;52.270;10.546;2023-11-22T01:06:36;4.80;;;2.25;;
54452;SDS011;40363;52.270;10.546;2023-11-22T01:09:03;5.63;;;2.83;;
54452;SDS011;40363;52.270;10.546;2023-11-22T01:11:30;3.78;;;2.30;;
54452;SDS011;40363;52.270;10.546;2023-11-22T01:13:56;4.50;;;2.35;;
54452;SDS011;40363;52.270;10.546;2023-11-22T01:16:23;6.32;;;2.92;;
54452;SDS011;40363;52.270;10.546;2023-11-22T01:18:51;3.67;;;2.28;;
54452;SDS011;40363;52.270;10.546;2023-11-22T01:21:18;5.70;;;2.90;;
54452;SDS011;40363;52.270;10.546;2023-11-22T01:23:44;8.18;;;2.90;;
54452;SDS011;40363;52.270;10.546;2023-11-22T01:26:11;4.88;;;2.50;;
54452;SDS011;40363;52.270;10.546;2023-11-22T01:28:38;5.18;;;2.38;;
54452;SDS011;40363;52.270;10.546;2023-11-22T01:31:10;6.43;;;3.10;;
54452;SDS011;40363;52.270;10.546;2023-11-22T01:33:38;5.07;;;2.20;;
54452;SDS011;40363;52.270;10.546;2023-11-22T01:36:06;4.45;;;2.20;;
54452;SDS011;40363;52.270;10.546;2023-11-22T01:38:34;4.63;;;2.13;;
54452;SDS011;40363;52.270;10.546;2023-11-22T01:41:00;8.70;;;2.95;;
54452;SDS011;40363;52.270;10.546;2023-11-22T01:43:27;4.97;;;2.40;;
54452;SDS011;40363;52.270;10.546;2023-11-22T01:45:54;5.38;;;2.60;;
54452;SDS011;40363;52.270;10.546;2023-11-22T01:48:20;4.55;;;2.20;;
54452;SDS011;40363;52.270;10.546;2023-11-22T01:50:47;4.35;;;2.45;;
54452;SDS011;40363;52.270;10.546;2023-11-22T01:53:16;3.17;;;2.13;;
54452;SDS011;40363;52.270;10.546;2023-11-22T01:55:43;4.25;;;2.10;;
54452;SDS011;40363;52.270;10.546;2023-11-22T01:58:11;5.47;;;2.70;;
54452;SDS011;40363;52.270;10.546;2023-11-22T02:00:42;4.30;;;2.35;;
54452;SDS011;40363;52.270;10.546;2023-11-22T02:03:14;6.15;;;2.97;;
54452;SDS011;40363;52.270;10.546;2023-11-22T02:22:32;4.85;;;2.40;;
54452;SDS011;40363;52.270;10.546;2023-11-22T02:25:00;4.18;;;2.58;;
54452;SDS011;40363;52.270;10.546;2023-11-22T02:27:27;5.20;;;2.80;;
54452;SDS011;40363;52.270;10.546;2023-11-22T02:29:53;5.45;;;2.67;;
54452;SDS011;40363;52.270;10.546;2023-11-22T02:32:20;6.68;;;2.30;;
54452;SDS011;40363;52.270;10.546;2023-11-22T02:34:48;4.82;;;2.72;;
54452;SDS011;40363;52.270;10.546;2023-11-22T02:37:15;4.57;;;2.17;;
54452;SDS011;40363;52.270;10.546;2023-11-22T02:39:43;4.90;;;2.67;;
54452;SDS011;40363;52.270;10.546;2023-11-22T02:42:19;5.50;;;2.88;;
54452;SDS011;40363;52.270;10.546;2023-11-22T02:44:45;5.13;;;2.40;;
54452;SDS011;40363;52.270;10.546;2023-11-22T02:47:12;6.80;;;3.35;;
54452;SDS011;40363;52.270;10.546;2023-11-22T02:49:39;6.28;;;3.42;;
54452;SDS011;40363;52.270;10.546;2023-11-22T02:52:06;5.97;;;2.25;;
54452;SDS011;40363;52.270;10.546;2023-11-22T02:54:32;6.13;;;2.78;;
54452;SDS011;40363;52.270;10.546;2023-11-22T02:56:59;5.90;;;3.25;;
54452;SDS011;40363;52.270;10.546;2023-11-22T02:59:28;5.22;;;2.65;;
54452;SDS011;40363;52.270;10.546;2023-11-22T03:01:54;3.90;;;2.30;;
54452;SDS011;40363;52.270;10.546;2023-11-22T03:04:21;5.45;;;2.97;;
54452;SDS011;40363;52.270;10.546;2023-11-22T03:06:48;4.70;;;2.65;;
54452;SDS011;40363;52.270;10.546;2023-11-22T03:09:15;4.40;;;2.70;;
54452;SDS011;40363;52.270;10.546;2023-11-22T03:11:42;7.03;;;3.13;;
54452;SDS011;40363;52.270;10.546;2023-11-22T03:14:08;4.53;;;2.92;;
54452;SDS011;40363;52.270;10.546;2023-11-22T03:16:38;8.75;;;2.67;;
54452;SDS011;40363;52.270;10.546;2023-11-22T03:19:05;7.97;;;2.97;;
54452;SDS011;40363;52.270;10.546;2023-11-22T03:21:32;5.90;;;2.60;;
54452;SDS011;40363;52.270;10.546;2023-11-22T03:24:00;5.25;;;2.42;;
54452;SDS011;40363;52.270;10.546;2023-11-22T03:26:29;5.68;;;2.92;;
54452;SDS011;40363;52.270;10.546;2023-11-22T03:28:56;4.97;;;2.65;;
54452;SDS011;40363;52.270;10.546;2023-11-22T03:31:22;7.03;;;2.75;;
54452;SDS011;40363;52.270;10.546;2023-11-22T03:33:50;5.32;;;3.08;;
54452;SDS011;40363;52.270;10.546;2023-11-22T03:36:17;2.95;;;2.30;;
54452;SDS011;40363;52.270;10.546;2023-11-22T03:38:44;7.80;;;3.10;;
54452;SDS011;40363;52.270;10.546;2023-11-22T03:41:10;5.85;;;2.70;;
54452;SDS011;40363;52.270;10.546;2023-11-22T03:43:37;4.50;;;2.55;;
54452;SDS011;40363;52.270;10.546;2023-11-22T03:46:03;5.40;;;2.60;;
54452;SDS011;40363;52.270;10.546;2023-11-22T03:48:30;6.18;;;2.63;;
54452;SDS011;40363;52.270;10.546;2023-11-22T03:50:58;4.32;;;2.72;;
54452;SDS011;40363;52.270;10.546;2023-11-22T03:53:25;7.97;;;2.75;;
54452;SDS011;40363;52.270;10.546;2023-11-22T03:55:52;4.50;;;2.90;;
54452;SDS011;40363;52.270;10.546;2023-11-22T03:58:19;7.43;;;3.10;;
54452;SDS011;40363;52.270;10.546;2023-11-22T04:00:46;7.55;;;2.60;;
54452;SDS011;40363;52.270;10.546;2023-11-22T04:03:12;4.82;;;2.33;;
54452;SDS011;40363;52.270;10.546;2023-11-22T04:05:39;6.95;;;2.80;;
54452;SDS011;40363;52.270;10.546;2023-11-22T04:08:07;5.68;;;2.55;;
54452;SDS011;40363;52.270;10.546;2023-11-22T04:10:34;5.35;;;2.25;;
54452;SDS011;40363;52.270;10.546;2023-11-22T04:13:01;5.85;;;3.33;;
54452;SDS011;40363;52.270;10.546;2023-11-22T04:15:28;4.93;;;2.80;;
54452;SDS011;40363;52.270;10.546;2023-11-22T04:17:54;3.85;;;2.25;;
54452;SDS011;40363;52.270;10.546;2023-11-22T04:20:21;6.10;;;2.72;;
54452;SDS011;40363;52.270;10.546;2023-11-22T04:22:48;4.95;;;2.60;;
54452;SDS011;40363;52.270;10.546;2023-11-22T04:25:16;4.65;;;2.90;;
54452;SDS011;40363;52.270;10.546;2023-11-22T04:27:43;7.97;;;3.03;;
54452;SDS011;40363;52.270;10.546;2023-11-22T04:30:10;4.63;;;2.50;;
54452;SDS011;40363;52.270;10.546;2023-11-22T04:32:39;6.68;;;2.70;;
54452;SDS011;40363;52.270;10.546;2023-11-22T04:35:06;6.32;;;2.58;;
54452;SDS011;40363;52.270;10.546;2023-11-22T04:37:34;6.13;;;3.17;;
54452;SDS011;40363;52.270;10.546;2023-11-22T04:40:01;4.65;;;2.25;;
54452;SDS011;40363;52.270;10.546;2023-11-22T04:42:31;3.88;;;2.40;;
54452;SDS011;40363;52.270;10.546;2023-11-22T04:44:57;6.10;;;2.45;;
54452;SDS011;40363;52.270;10.546;2023-11-22T04:47:24;4.25;;;2.70;;
54452;SDS011;40363;52.270;10.546;2023-11-22T04:49:51;5.45;;;2.67;;
54452;SDS011;40363;52.270;10.546;2023-11-22T04:52:18;6.32;;;2.78;;
54452;SDS011;40363;52.270;10.546;2023-11-22T04:54:44;6.20;;;3.13;;
54452;SDS011;40363;52.270;10.546;2023-11-22T04:57:11;5.22;;;2.50;;
54452;SDS011;40363;52.270;10.546;2023-11-22T04:59:39;6.63;;;2.72;;
54452;SDS011;40363;52.270;10.546;2023-11-22T05:02:06;5.18;;;2.22;;
54452;SDS011;40363;52.270;10.546;2023-11-22T05:04:33;4.78;;;2.63;;
54452;SDS011;40363;52.270;10.546;2023-11-22T05:07:00;4.55;;;2.35;;
54452;SDS011;40363;52.270;10.546;2023-11-22T05:09:26;7.60;;;3.10;;
54452;SDS011;40363;52.270;10.546;2023-11-22T05:11:53;6.78;;;3.80;;
54452;SDS011;40363;52.270;10.546;2023-11-22T05:14:20;4.28;;;2.33;;
54452;SDS011;40363;52.270;10.546;2023-11-22T05:16:48;4.00;;;2.20;;
54452;SDS011;40363;52.270;10.546;2023-11-22T05:19:15;3.95;;;2.65;;
54452;SDS011;40363;52.270;10.546;2023-11-22T05:21:42;4.00;;;2.38;;
54452;SDS011;40363;52.270;10.546;2023-11-22T05:24:09;6.07;;;2.40;;
54452;SDS011;40363;52.270;10.546;2023-11-22T05:26:36;3.38;;;2.65;;
54452;SDS011;40363;52.270;10.546;2023-11-22T05:29:03;5.60;;;2.72;;
54452;SDS011;40363;52.270;10.546;2023-11-22T05:31:30;4.88;;;2.58;;
54452;SDS011;40363;52.270;10.546;2023-11-22T05:33:58;5.60;;;2.67;;
54452;SDS011;40363;52.270;10.546;2023-11-22T05:36:25;5.90;;;2.97;;
54452;SDS011;40363;52.270;10.546;2023-11-22T05:38:51;5.10;;;2.50;;
54452;SDS011;40363;52.270;10.546;2023-11-22T05:41:18;6.95;;;2.65;;
54452;SDS011;40363;52.270;10.546;2023-11-22T05:43:45;8.98;;;3.45;;
54452;SDS011;40363;52.270;10.546;2023-11-22T05:46:12;5.55;;;3.00;;
54452;SDS011;40363;52.270;10.546;2023-11-22T05:48:38;4.78;;;3.15;;
54452;SDS011;40363;52.270;10.546;2023-11-22T05:51:06;4.80;;;3.03;;
54452;SDS011;40363;52.270;10.546;2023-11-22T05:53:33;7.57;;;2.85;;
54452;SDS011;40363;52.270;10.546;2023-11-22T05:56:01;5.30;;;2.92;;
54452;SDS011;40363;52.270;10.546;2023-11-22T05:58:28;4.43;;;2.67;;
54452;SDS011;40363;52.270;10.546;2023-11-22T06:00:55;4.90;;;2.58;;
54452;SDS011;40363;52.270;10.546;2023-11-22T06:03:22;4.47;;;2.63;;
54452;SDS011;40363;52.270;10.546;2023-11-22T06:05:48;3.90;;;2.60;;
54452;SDS011;40363;52.270;10.546;2023-11-22T06:08:17;5.93;;;3.45;;
54452;SDS011;40363;52.270;10.546;2023-11-22T06:10:43;6.10;;;3.17;;
54452;SDS011;40363;52.270;10.546;2023-11-22T06:13:10;4.78;;;2.90;;
54452;SDS011;40363;52.270;10.546;2023-11-22T06:15:37;5.85;;;3.30;;
54452;SDS011;40363;52.270;10.546;2023-11-22T06:18:04;5.97;;;3.20;;
54452;SDS011;40363;52.270;10.546;2023-11-22T06:20:31;8.57;;;3.45;;
54452;SDS011;40363;52.270;10.546;2023-11-22T06:22:58;7.32;;;2.95;;
54452;SDS011;40363;52.270;10.546;2023-11-22T06:25:26;5.55;;;3.20;;
54452;SDS011;40363;52.270;10.546;2023-11-22T06:27:53;6.03;;;3.50;;
54452;SDS011;40363;52.270;10.546;2023-11-22T06:30:21;6.32;;;3.45;;
54452;SDS011;40363;52.270;10.546;2023-11-22T06:32:48;9.75;;;3.55;;
54452;SDS011;40363;52.270;10.546;2023-11-22T06:35:15;6.28;;;3.33;;
54452;SDS011;40363;52.270;10.546;2023-11-22T06:37:42;8.13;;;3.58;;
54452;SDS011;40363;52.270;10.546;2023-11-22T06:40:10;4.88;;;2.83;;
54452;SDS011;40363;52.270;10.546;2023-11-22T06:42:39;7.82;;;3.45;;
54452;SDS011;40363;52.270;10.546;2023-11-22T06:45:07;9.48;;;3.53;;
54452;SDS011;40363;52.270;10.546;2023-11-22T06:47:35;5.30;;;2.75;;
54452;SDS011;40363;52.270;10.546;2023-11-22T06:50:02;5.20;;;3.20;;
54452;SDS011;40363;52.270;10.546;2023-11-22T06:52:34;7.13;;;2.90;;
54452;SDS011;40363;52.270;10.546;2023-11-22T06:55:00;7.75;;;3.00;;
54452;SDS011;40363;52.270;10.546;2023-11-22T06:57:27;6.57;;;2.83;;
54452;SDS011;40363;52.270;10.546;2023-11-22T06:59:55;7.70;;;2.95;;
54452;SDS011;40363;52.270;10.546;2023-11-22T07:02:23;9.18;;;3.13;;
54452;SDS011;40363;52.270;10.546;2023-11-22T07:04:50;4.78;;;2.78;;
54452;SDS011;40363;52.270;10.546;2023-11-22T07:07:18;6.30;;;3.35;;
54452;SDS011;40363;52.270;10.546;2023-11-22T07:09:45;5.60;;;3.78;;
54452;SDS011;40363;52.270;10.546;2023-11-22T07:12:11;5.00;;;2.80;;
54452;SDS011;40363;52.270;10.546;2023-11-22T07:14:38;4.93;;;2.92;;
54452;SDS011;40363;52.270;10.546;2023-11-22T07:17:06;7.18;;;2.83;;
54452;SDS011;40363;52.270;10.546;2023-11-22T07:19:33;7.97;;;4.30;;
54452;SDS011;40363;52.270;10.546;2023-11-22T07:22:03;7.07;;;3.75;;
54452;SDS011;40363;52.270;10.546;2023-11-22T07:24:35;5.57;;;2.85;;
54452;SDS011;40363;52.270;10.546;2023-11-22T07:27:03;6.13;;;3.47;;
54452;SDS011;40363;52.270;10.546;2023-11-22T07:29:30;6.55;;;2.92;;
54452;SDS011;40363;52.270;10.546;2023-11-22T07:31:57;5.00;;;3.28;;
54452;SDS011;40363;52.270;10.546;2023-11-22T07:34:26;7.57;;;2.80;;
54452;SDS011;40363;52.270;10.546;2023-11-22T07:36:53;7.20;;;3.30;;
54452;SDS011;40363;52.270;10.546;2023-11-22T07:39:20;6.60;;;3.75;;
54452;SDS011;40363;52.270;10.546;2023-11-22T07:41:52;5.63;;;3.55;;
54452;SDS011;40363;52.270;10.546;2023-11-22T07:44:19;5.70;;;3.10;;
54452;SDS011;40363;52.270;10.546;2023-11-22T07:46:47;8.23;;;4.22;;
54452;SDS011;40363;52.270;10.546;2023-11-22T07:49:13;7.43;;;3.17;;
54452;SDS011;40363;52.270;10.546;2023-11-22T07:51:42;7.00;;;3.80;;
54452;SDS011;40363;52.270;10.546;2023-11-22T07:54:11;6.60;;;3.45;;
54452;SDS011;40363;52.270;10.546;2023-11-22T07:56:40;6.80;;;3.63;;
54452;SDS011;40363;52.270;10.546;2023-11-22T07:59:08;6.32;;;3.35;;
54452;SDS011;40363;52.270;10.546;2023-11-22T08:01:35;6.28;;;3.85;;
54452;SDS011;40363;52.270;10.546;2023-11-22T08:04:03;6.03;;;3.70;;
54452;SDS011;40363;52.270;10.546;2023-11-22T08:06:31;6.35;;;3.78;;
54452;SDS011;40363;52.270;10.546;2023-11-22T08:08:59;4.70;;;3.20;;
54452;SDS011;40363;52.270;10.546;2023-11-22T08:11:26;7.07;;;3.72;;
54452;SDS011;40363;52.270;10.546;2023-11-22T08:13:53;6.40;;;3.85;;
54452;SDS011;40363;52.270;10.546;2023-11-22T08:16:23;11.23;;;4.53;;
54452;SDS011;40363;52.270;10.546;2023-11-22T08:18:50;9.80;;;4.57;;
54452;SDS011;40363;52.270;10.546;2023-11-22T08:21:16;9.73;;;4.30;;
54452;SDS011;40363;52.270;10.546;2023-11-22T08:23:43;7.28;;;4.18;;
54452;SDS011;40363;52.270;10.546;2023-11-22T08:26:13;8.60;;;3.70;;
54452;SDS011;40363;52.270;10.546;2023-11-22T08:28:40;7.35;;;3.83;;
54452;SDS011;40363;52.270;10.546;2023-11-22T08:31:07;6.68;;;3.28;;
54452;SDS011;40363;52.270;10.546;2023-11-22T08:33:35;8.57;;;4.03;;
54452;SDS011;40363;52.270;10.546;2023-11-22T08:36:02;6.90;;;3.65;;
54452;SDS011;40363;52.270;10.546;2023-11-22T08:38:30;10.40;;;4.35;;
54452;SDS011;40363;52.270;10.546;2023-11-22T08:40:58;6.78;;;3.80;;
54452;SDS011;40363;52.270;10.546;2023-11-22T08:43:28;7.68;;;3.63;;
54452;SDS011;40363;52.270;10.546;2023-11-22T08:45:57;9.23;;;4.50;;
54452;SDS011;40363;52.270;10.546;2023-11-22T08:48:23;7.70;;;3.70;;
54452;SDS011;40363;52.270;10.546;2023-11-22T08:50:51;7.18;;;3.88;;
54452;SDS011;40363;52.270;10.546;2023-11-22T08:53:18;7.53;;;3.55;;
54452;SDS011;40363;52.270;10.546;2023-11-22T08:55:45;7.32;;;3.75;;
54452;SDS011;40363;52.270;10.546;2023-11-22T08:58:12;6.72;;;3.05;;
54452;SDS011;40363;52.270;10.546;2023-11-22T09:00:40;9.55;;;3.70;;
54452;SDS011;40363;52.270;10.546;2023-11-22T09:03:07;5.88;;;3.38;;
54452;SDS011;40363;52.270;10.546;2023-11-22T09:05:36;8.80;;;4.10;;
54452;SDS011;40363;52.270;10.546;2023-11-22T09:08:02;8.30;;;4.28;;
54452;SDS011;40363;52.270;10.546;2023-11-22T09:10:29;6.68;;;4.05;;
54452;SDS011;40363;52.270;10.546;2023-11-22T09:12:56;12.23;;;4.50;;
54452;SDS011;40363;52.270;10.546;2023-11-22T09:15:25;8.45;;;4.20;;
54452;SDS011;40363;52.270;10.546;2023-11-22T09:17:55;6.78;;;4.07;;
54452;SDS011;40363;52.270;10.546;2023-11-22T09:20:23;8.18;;;4.57;;
54452;SDS011;40363;52.270;10.546;2023-11-22T09:22:50;7.78;;;4.35;;
54452;SDS011;40363;52.270;10.546;2023-11-22T09:25:19;7.40;;;3.97;;
54452;SDS011;40363;52.270;10.546;2023-11-22T09:27:47;10.60;;;4.03;;
54452;SDS011;40363;52.270;10.546;2023-11-22T09:30:16;6.78;;;3.67;;
54452;SDS011;40363;52.270;10.546;2023-11-22T09:32:58;6.45;;;3.72;;
54452;SDS011;40363;52.270;10.546;2023-11-22T09:35:26;8.07;;;4.18;;
54452;SDS011;40363;52.270;10.546;2023-11-22T09:37:54;6.55;;;3.50;;
54452;SDS011;40363;52.270;10.546;2023-11-22T09:40:21;8.18;;;4.25;;
54452;SDS011;40363;52.270;10.546;2023-11-22T09:42:49;7.55;;;4.28;;
54452;SDS011;40363;52.270;10.546;2023-11-22T09:45:18;6.38;;;3.95;;
54452;SDS011;40363;52.270;10.546;2023-11-22T09:47:45;6.95;;;4.13;;
54452;SDS011;40363;52.270;10.546;2023-11-22T09:50:16;8.18;;;3.78;;
54452;SDS011;40363;52.270;10.546;2023-11-22T09:52:46;8.40;;;3.92;;
54452;SDS011;40363;52.270;10.546;2023-11-22T09:55:15;8.15;;;4.43;;
54452;SDS011;40363;52.270;10.546;2023-11-22T09:57:42;6.40;;;3.63;;
54452;SDS011;40363;52.270;10.546;2023-11-22T10:00:10;8.25;;;3.88;;
54452;SDS011;40363;52.270;10.546;2023-11-22T10:02:39;7.30;;;3.75;;
54452;SDS011;40363;52.270;10.546;2023-11-22T10:05:06;6.25;;;3.55;;
54452;SDS011;40363;52.270;10.546;2023-11-22T10:07:36;7.53;;;4.35;;
54452;SDS011;40363;52.270;10.546;2023-11-22T10:10:03;8.63;;;3.95;;
54452;SDS011;40363;52.270;10.546;2023-11-22T10:12:35;7.45;;;3.80;;
54452;SDS011;40363;52.270;10.546;2023-11-22T10:15:11;7.88;;;3.80;;
54452;SDS011;40363;52.270;10.546;2023-11-22T10:17:39;6.63;;;4.20;;
54452;SDS011;40363;52.270;10.546;2023-11-22T10:20:06;10.27;;;4.22;;
54452;SDS011;40363;52.270;10.546;2023-11-22T10:22:45;7.18;;;4.28;;
54452;SDS011;40363;52.270;10.546;2023-11-22T10:25:13;7.50;;;3.92;;
54452;SDS011;40363;52.270;10.546;2023-11-22T10:27:43;11.98;;;4.72;;
54452;SDS011;40363;52.270;10.546;2023-11-22T10:30:11;7.63;;;4.28;;
54452;SDS011;40363;52.270;10.546;2023-11-22T10:32:40;8.93;;;4.10;;
54452;SDS011;40363;52.270;10.546;2023-11-22T10:35:07;8.45;;;4.40;;
54452;SDS011;40363;52.270;10.546;2023-11-22T10:37:34;7.57;;;4.25;;
54452;SDS011;40363;52.270;10.546;2023-11-22T10:40:03;6.63;;;4.30;;
54452;SDS011;40363;52.270;10.546;2023-11-22T10:42:31;7.20;;;4.07;;
54452;SDS011;40363;52.270;10.546;2023-11-22T10:44:59;8.63;;;3.90;;
54452;SDS011;40363;52.270;10.546;2023-11-22T10:47:28;6.07;;;3.88;;
54452;SDS011;40363;52.270;10.546;2023-11-22T10:49:56;6.53;;;4.10;;
54452;SDS011;40363;52.270;10.546;2023-11-22T10:52:26;10.77;;;5.20;;
54452;SDS011;40363;52.270;10.546;2023-11-22T10:54:55;8.98;;;4.57;;
54452;SDS011;40363;52.270;10.546;2023-11-22T10:57:29;8.98;;;4.60;;
54452;SDS011;40363;52.270;10.546;2023-11-22T11:00:00;7.47;;;4.43;;
54452;SDS011;40363;52.270;10.546;2023-11-22T11:02:33;9.77;;;4.22;;
54452;SDS011;40363;52.270;10.546;2023-11-22T11:05:10;7.32;;;4.13;;
54452;SDS011;40363;52.270;10.546;2023-11-22T11:07:43;6.90;;;3.80;;
54452;SDS011;40363;52.270;10.546;2023-11-22T11:10:15;6.15;;;3.55;;
54452;SDS011;40363;52.270;10.546;2023-11-22T11:12:45;8.15;;;4.45;;
54452;SDS011;40363;52.270;10.546;2023-11-22T11:15:13;7.32;;;3.58;;
54452;SDS011;40363;52.270;10.546;2023-11-22T11:17:42;6.70;;;4.10;;
54452;SDS011;40363;52.270;10.546;2023-11-22T11:20:12;9.55;;;4.13;;
54452;SDS011;40363;52.270;10.546;2023-11-22T11:22:39;10.23;;;4.88;;
54452;SDS011;40363;52.270;10.546;2023-11-22T11:25:06;8.07;;;4.25;;
54452;SDS011;40363;52.270;10.546;2023-11-22T11:27:35;7.30;;;4.28;;
54452;SDS011;40363;52.270;10.546;2023-11-22T11:33:01;6.15;;;4.40;;
54452;SDS011;40363;52.270;10.546;2023-11-22T11:35:37;7.00;;;4.43;;
54452;SDS011;40363;52.270;10.546;2023-11-22T11:38:04;9.13;;;4.95;;
54452;SDS011;40363;52.270;10.546;2023-11-22T11:40:34;8.85;;;4.32;;
54452;SDS011;40363;52.270;10.546;2023-11-22T11:43:01;7.68;;;4.35;;
54452;SDS011;40363;52.270;10.546;2023-11-22T11:45:28;8.73;;;3.60;;
54452;SDS011;40363;52.270;10.546;2023-11-22T11:47:56;7.85;;;4.47;;
54452;SDS011;40363;52.270;10.546;2023-11-22T11:50:24;10.27;;;4.72;;
54452;SDS011;40363;52.270;10.546;2023-11-22T11:52:51;9.50;;;4.20;;
54452;SDS011;40363;52.270;10.546;2023-11-22T11:55:19;6.97;;;3.88;;
54452;SDS011;40363;52.270;10.546;2023-11-22T11:57:46;8.95;;;4.32;;
54452;SDS011;40363;52.270;10.546;2023-11-22T12:00:13;8.57;;;3.70;;
54452;SDS011;40363;52.270;10.546;2023-11-22T12:02:40;7.65;;;3.92;;
54452;SDS011;40363;52.270;10.546;2023-11-22T12:05:07;8.75;;;3.47;;
54452;SDS011;40363;52.270;10.546;2023-11-22T12:07:36;7.07;;;4.00;;
54452;SDS011;40363;52.270;10.546;2023-11-22T12:10:03;6.88;;;4.00;;
54452;SDS011;40363;52.270;10.546;2023-11-22T12:12:31;8.88;;;4.53;;
54452;SDS011;40363;52.270;10.546;2023-11-22T12:14:57;5.20;;;3.53;;
54452;SDS011;40363;52.270;10.546;2023-11-22T12:19:52;6.88;;;3.50;;
54452;SDS011;40363;52.270;10.546;2023-11-22T12:22:20;6.45;;;3.28;;
54452;SDS011;40363;52.270;10.546;2023-11-22T12:24:48;7.78;;;3.70;;
54452;SDS011;40363;52.270;10.546;2023-11-22T12:27:15;5.03;;;3.03;;
54452;SDS011;40363;52.270;10.546;2023-11-22T12:29:43;7.95;;;3.40;;
54452;SDS011;40363;52.270;10.546;2023-11-22T12:32:11;9.18;;;4.25;;
54452;SDS011;40363;52.270;10.546;2023-11-22T12:34:38;6.30;;;3.10;;
54452;SDS011;40363;52.270;10.546;2023-11-22T12:37:05;6.60;;;3.40;;
54452;SDS011;40363;52.270;10.546;2023-11-22T12:39:32;7.32;;;3.92;;
54452;SDS011;40363;52.270;10.546;2023-11-22T12:42:03;6.63;;;3.75;;
54452;SDS011;40363;52.270;10.546;2023-11-22T12:44:30;7.10;;;4.10;;
54452;SDS011;40363;52.270;10.546;2023-11-22T12:46:58;6.57;;;3.83;;
54452;SDS011;40363;52.270;10.546;2023-11-22T12:49:29;5.90;;;3.72;;
54452;SDS011;40363;52.270;10.546;2023-11-22T12:51:57;6.60;;;4.10;;
54452;SDS011;40363;52.270;10.546;2023-11-22T12:54:23;4.97;;;3.33;;
54452;SDS011;40363;52.270;10.546;2023-11-22T12:56:51;7.70;;;3.50;;
54452;SDS011;40363;52.270;10.546;2023-11-22T12:59:24;6.78;;;3.53;;
54452;SDS011;40363;52.270;10.546;2023-11-22T13:01:52;10.13;;;4.30;;
54452;SDS011;40363;52.270;10.546;2023-11-22T13:04:19;6.70;;;3.75;;
54452;SDS011;40363;52.270;10.546;2023-11-22T13:06:46;6.82;;;3.58;;
54452;SDS011;40363;52.270;10.546;2023-11-22T13:09:13;5.55;;;3.65;;
54452;SDS011;40363;52.270;10.546;2023-11-22T13:11:41;5.95;;;3.70;;
54452;SDS011;40363;52.270;10.546;2023-11-22T13:14:08;7.63;;;3.55;;
54452;SDS011;40363;52.270;10.546;2023-11-22T13:16:37;8.18;;;4.07;;
54452;SDS011;40363;52.270;10.546;2023-11-22T13:19:04;8.30;;;3.88;;
54452;SDS011;40363;52.270;10.546;2023-11-22T13:21:31;7.22;;;3.53;;
54452;SDS011;40363;52.270;10.546;2023-11-22T13:23:58;6.53;;;3.70;;
54452;SDS011;40363;52.270;10.546;2023-11-22T13:26:25;7.28;;;3.42;;
54452;SDS011;40363;52.270;10.546;2023-11-22T13:28:51;7.65;;;4.63;;
54452;SDS011;40363;52.270;10.546;2023-11-22T13:31:20;7.15;;;4.63;;
54452;SDS011;40363;52.270;10.546;2023-11-22T13:33:48;7.80;;;4.45;;
54452;SDS011;40363;52.270;10.546;2023-11-22T13:36:15;9.82;;;4.53;;
54452;SDS011;40363;52.270;10.546;2023-11-22T13:38:42;9.45;;;4.82;;
54452;SDS011;40363;52.270;10.546;2023-11-22T13:41:09;7.32;;;4.47;;
54452;SDS011;40363;52.270;10.546;2023-11-22T13:43:36;8.57;;;4.35;;
54452;SDS011;40363;52.270;10.546;2023-11-22T13:46:03;11.75;;;5.13;;
54452;SDS011;40363;52.270;10.546;2023-11-22T13:48:30;8.15;;;4.72;;
54452;SDS011;40363;52.270;10.546;2023-11-22T13:50:59;9.75;;;5.65;;
54452;SDS011;40363;52.270;10.546;2023-11-22T13:53:26;9.20;;;5.57;;
54452;SDS011;40363;52.270;10.546;2023-11-22T13:55:57;10.85;;;6.00;;
54452;SDS011;40363;52.270;10.546;2023-11-22T13:58:25;9.80;;;5.65;;
54452;SDS011;40363;52.270;10.546;2023-11-22T14:00:52;9.07;;;5.70;;
54452;SDS011;40363;52.270;10.546;2023-11-22T14:03:19;10.95;;;4.68;;
54452;SDS011;40363;52.270;10.546;2023-11-22T14:05:47;8.63;;;5.15;;
54452;SDS011;40363;52.270;10.546;2023-11-22T14:08:15;8.65;;;5.45;;
54452;SDS011;40363;52.270;10.546;2023-11-22T14:10:41;10.77;;;5.70;;
54452;SDS011;40363;52.270;10.546;2023-11-22T14:13:10;10.20;;;5.60;;
54452;SDS011;40363;52.270;10.546;2023-11-22T14:15:37;8.88;;;5.38;;
54452;SDS011;40363;52.270;10.546;2023-11-22T14:18:03;10.50;;;6.15;;
54452;SDS011;40363;52.270;10.546;2023-11-22T14:20:30;9.73;;;6.05;;
54452;SDS011;40363;52.270;10.546;2023-11-22T14:22:59;9.88;;;4.97;;
54452;SDS011;40363;52.270;10.546;2023-11-22T14:25:27;12.63;;;6.70;;
54452;SDS011;40363;52.270;10.546;2023-11-22T14:27:54;11.02;;;5.88;;
54452;SDS011;40363;52.270;10.546;2023-11-22T14:30:22;10.38;;;5.20;;
54452;SDS011;40363;52.270;10.546;2023-11-22T14:32:50;9.07;;;5.53;;
54452;SDS011;40363;52.270;10.546;2023-11-22T14:35:18;9.52;;;5.25;;
54452;SDS011;40363;52.270;10.546;2023-11-22T14:37:44;10.98;;;6.60;;
54452;SDS011;40363;52.270;10.546;2023-11-22T14:40:12;9.55;;;5.65;;
54452;SDS011;40363;52.270;10.546;2023-11-22T14:42:41;9.43;;;5.68;;
54452;SDS011;40363;52.270;10.546;2023-11-22T14:45:09;8.93;;;5.30;;
54452;SDS011;40363;52.270;10.546;2023-11-22T14:47:37;9.40;;;6.13;;
54452;SDS011;40363;52.270;10.546;2023-11-22T14:50:05;8.52;;;5.57;;
54452;SDS011;40363;52.270;10.546;2023-11-22T14:52:36;10.38;;;6.05;;
54452;SDS011;40363;52.270;10.546;2023-11-22T14:55:02;9.27;;;5.40;;
54452;SDS011;40363;52.270;10.546;2023-11-22T14:57:30;10.93;;;6.03;;